sensor_id;sensor_type;location;lat;lon;timestamp;temperature;humidity
30308;DHT22;17114;52.314;8.910;2024-03-22T00:01:45;9.40;99.90
30308;DHT22;17114;52.314;8.910;2024-03-22T00:04:12;9.40;99.90
30308;DHT22;17114;52.314;8.910;2024-03-22T00:06:39;9.40;99.90
30308;DHT22;17114;52.314;8.910;2024-03-22T00:09:05;9.40;99.90
30308;DHT22;17114;52.314;8.910;2024-03-22T00:11:32;9.50;99.90
30308;DHT22;17114;52.314;8.910;2024-03-22T00:13:57;9.50;99.90
30308;DHT22;17114;52.314;8.910;2024-03-22T00:16:23;9.50;99.90
30308;DHT22;17114;52.314;8.910;2024-03-22T00:18:49;9.50;99.90
30308;DHT22;17114;52.314;8.910;2024-03-22T00:21:16;9.50;99.90
30308;DHT22;17114;52.314;8.910;2024-03-22T00:23:44;9.50;99.90
30308;DHT22;17114;52.314;8.910;2024-03-22T00:26:10;9.50;99.90
30308;DHT22;17114;52.314;8.910;2024-03-22T00:28:36;9.60;99.90
30308;DHT22;17114;52.314;8.910;2024-03-22T00:31:02;9.60;99.90
30308;DHT22;17114;52.314;8.910;2024-03-22T00:33:28;9.60;99.90
30308;DHT22;17114;52.314;8.910;2024-03-22T00:35:54;9.60;99.90
30308;DHT22;17114;52.314;8.910;2024-03-22T00:38:20;9.60;99.90
30308;DHT22;17114;52.314;8.910;2024-03-22T00:40:46;9.60;99.90
30308;DHT22;17114;52.314;8.910;2024-03-22T00:43:12;9.60;99.90
30308;DHT22;17114;52.314;8.910;2024-03-22T00:45:38;9.70;99.90
30308;DHT22;17114;52.314;8.910;2024-03-22T00:48:04;9.70;99.90
30308;DHT22;17114;52.314;8.910;2024-03-22T00:50:30;9.80;99.90
30308;DHT22;17114;52.314;8.910;2024-03-22T00:52:56;9.70;99.90
30308;DHT22;17114;52.314;8.910;2024-03-22T00:55:23;9.80;99.90
30308;DHT22;17114;52.314;8.910;2024-03-22T00:57:49;9.70;99.90
30308;DHT22;17114;52.314;8.910;2024-03-22T01:00:15;9.70;99.90
30308;DHT22;17114;52.314;8.910;2024-03-22T01:02:42;9.70;99.90
30308;DHT22;17114;52.314;8.910;2024-03-22T01:05:08;9.80;99.90
30308;DHT22;17114;52.314;8.910;2024-03-22T01:07:36;9.80;99.90
30308;DHT22;17114;52.314;8.910;2024-03-22T01:10:06;9.80;99.90
30308;DHT22;17114;52.314;8.910;2024-03-22T01:12:32;9.80;99.90
30308;DHT22;17114;52.314;8.910;2024-03-22T01:14:58;9.80;99.90
30308;DHT22;17114;52.314;8.910;2024-03-22T01:17:25;9.80;99.90
30308;DHT22;17114;52.314;8.910;2024-03-22T01:19:51;9.80;99.90
30308;DHT22;17114;52.314;8.910;2024-03-22T01:22:18;9.80;99.90
30308;DHT22;17114;52.314;8.910;2024-03-22T01:24:44;9.80;99.90
30308;DHT22;17114;52.314;8.910;2024-03-22T01:27:11;9.80;99.90
30308;DHT22;17114;52.314;8.910;2024-03-22T01:29:37;9.80;99.90
30308;DHT22;17114;52.314;8.910;2024-03-22T01:32:03;9.80;99.90
30308;DHT22;17114;52.314;8.910;2024-03-22T01:34:29;9.80;99.90
30308;DHT22;17114;52.314;8.910;2024-03-22T01:36:55;9.80;99.90
30308;DHT22;17114;52.314;8.910;2024-03-22T01:39:22;9.80;99.90
30308;DHT22;17114;52.314;8.910;2024-03-22T01:41:48;9.90;99.90
30308;DHT22;17114;52.314;8.910;2024-03-22T01:44:15;9.90;99.90
30308;DHT22;17114;52.314;8.910;2024-03-22T01:46:42;9.90;99.90
30308;DHT22;17114;52.314;8.910;2024-03-22T01:49:15;9.90;99.90
30308;DHT22;17114;52.314;8.910;2024-03-22T01:51:42;9.90;99.90
30308;DHT22;17114;52.314;8.910;2024-03-22T01:54:09;9.80;99.90
30308;DHT22;17114;52.314;8.910;2024-03-22T01:56:39;9.80;99.90
30308;DHT22;17114;52.314;8.910;2024-03-22T01:59:06;9.70;99.90
30308;DHT22;17114;52.314;8.910;2024-03-22T02:01:32;9.70;99.90
30308;DHT22;17114;52.314;8.910;2024-03-22T02:03:59;9.80;99.90
30308;DHT22;17114;52.314;8.910;2024-03-22T02:06:25;9.80;99.90
30308;DHT22;17114;52.314;8.910;2024-03-22T02:08:51;9.80;99.90
30308;DHT22;17114;52.314;8.910;2024-03-22T02:11:17;9.80;99.90
30308;DHT22;17114;52.314;8.910;2024-03-22T02:13:44;9.90;99.90
30308;DHT22;17114;52.314;8.910;2024-03-22T02:16:10;9.90;99.90
30308;DHT22;17114;52.314;8.910;2024-03-22T02:18:36;9.80;99.90
30308;DHT22;17114;52.314;8.910;2024-03-22T02:21:02;9.90;99.90
30308;DHT22;17114;52.314;8.910;2024-03-22T02:23:32;9.90;99.90
30308;DHT22;17114;52.314;8.910;2024-03-22T02:26:00;9.80;99.90
30308;DHT22;17114;52.314;8.910;2024-03-22T02:28:26;9.80;99.90
30308;DHT22;17114;52.314;8.910;2024-03-22T02:30:52;9.80;99.90
30308;DHT22;17114;52.314;8.910;2024-03-22T02:33:18;9.80;99.90
30308;DHT22;17114;52.314;8.910;2024-03-22T02:35:48;9.80;99.90
30308;DHT22;17114;52.314;8.910;2024-03-22T02:38:15;9.80;99.90
30308;DHT22;17114;52.314;8.910;2024-03-22T02:40:42;9.80;99.90
30308;DHT22;17114;52.314;8.910;2024-03-22T02:43:08;9.80;99.90
30308;DHT22;17114;52.314;8.910;2024-03-22T02:45:34;9.80;99.90
30308;DHT22;17114;52.314;8.910;2024-03-22T02:48:00;9.70;99.90
30308;DHT22;17114;52.314;8.910;2024-03-22T02:50:26;9.60;99.90
30308;DHT22;17114;52.314;8.910;2024-03-22T02:52:52;9.70;99.90
30308;DHT22;17114;52.314;8.910;2024-03-22T02:55:18;9.70;99.90
30308;DHT22;17114;52.314;8.910;2024-03-22T02:57:44;9.70;99.90
30308;DHT22;17114;52.314;8.910;2024-03-22T03:00:10;9.70;99.90
30308;DHT22;17114;52.314;8.910;2024-03-22T03:02:36;9.70;99.90
30308;DHT22;17114;52.314;8.910;2024-03-22T03:05:03;9.70;99.90
30308;DHT22;17114;52.314;8.910;2024-03-22T03:07:29;9.70;99.90
30308;DHT22;17114;52.314;8.910;2024-03-22T03:09:55;9.70;99.90
30308;DHT22;17114;52.314;8.910;2024-03-22T03:12:21;9.70;99.90
30308;DHT22;17114;52.314;8.910;2024-03-22T03:14:47;9.70;99.90
30308;DHT22;17114;52.314;8.910;2024-03-22T03:17:13;9.70;99.90
30308;DHT22;17114;52.314;8.910;2024-03-22T03:19:39;9.80;99.90
30308;DHT22;17114;52.314;8.910;2024-03-22T03:22:04;9.70;99.90
30308;DHT22;17114;52.314;8.910;2024-03-22T03:24:31;9.70;99.90
30308;DHT22;17114;52.314;8.910;2024-03-22T03:26:57;9.80;99.90
30308;DHT22;17114;52.314;8.910;2024-03-22T03:29:23;9.80;99.90
30308;DHT22;17114;52.314;8.910;2024-03-22T03:31:49;9.70;99.90
30308;DHT22;17114;52.314;8.910;2024-03-22T03:34:15;9.90;99.90
30308;DHT22;17114;52.314;8.910;2024-03-22T03:36:41;9.90;99.90
30308;DHT22;17114;52.314;8.910;2024-03-22T03:39:07;10.00;99.90
30308;DHT22;17114;52.314;8.910;2024-03-22T03:41:33;10.00;99.90
30308;DHT22;17114;52.314;8.910;2024-03-22T03:43:59;9.90;99.90
30308;DHT22;17114;52.314;8.910;2024-03-22T03:46:25;10.00;99.90
30308;DHT22;17114;52.314;8.910;2024-03-22T03:48:51;10.00;99.90
30308;DHT22;17114;52.314;8.910;2024-03-22T03:51:17;10.00;99.90
30308;DHT22;17114;52.314;8.910;2024-03-22T03:53:43;10.00;99.90
30308;DHT22;17114;52.314;8.910;2024-03-22T03:56:09;10.00;99.90
30308;DHT22;17114;52.314;8.910;2024-03-22T03:58:35;10.10;99.90
30308;DHT22;17114;52.314;8.910;2024-03-22T04:01:06;10.10;99.90
30308;DHT22;17114;52.314;8.910;2024-03-22T04:03:32;10.10;99.90
30308;DHT22;17114;52.314;8.910;2024-03-22T04:05:58;10.00;99.90
30308;DHT22;17114;52.314;8.910;2024-03-22T04:08:28;10.10;99.90
30308;DHT22;17114;52.314;8.910;2024-03-22T04:10:54;10.00;99.90
30308;DHT22;17114;52.314;8.910;2024-03-22T04:13:27;10.00;99.90
30308;DHT22;17114;52.314;8.910;2024-03-22T04:15:53;10.10;99.90
30308;DHT22;17114;52.314;8.910;2024-03-22T04:18:20;10.10;99.90
30308;DHT22;17114;52.314;8.910;2024-03-22T04:20:56;10.00;99.90
30308;DHT22;17114;52.314;8.910;2024-03-22T04:23:22;10.10;99.90
30308;DHT22;17114;52.314;8.910;2024-03-22T04:25:56;10.10;99.90
30308;DHT22;17114;52.314;8.910;2024-03-22T04:28:23;10.10;99.90
30308;DHT22;17114;52.314;8.910;2024-03-22T04:31:03;10.10;99.90
30308;DHT22;17114;52.314;8.910;2024-03-22T04:33:32;10.10;99.90
30308;DHT22;17114;52.314;8.910;2024-03-22T04:35:58;10.10;99.90
30308;DHT22;17114;52.314;8.910;2024-03-22T04:38:25;10.00;99.90
30308;DHT22;17114;52.314;8.910;2024-03-22T04:40:52;10.10;99.90
30308;DHT22;17114;52.314;8.910;2024-03-22T04:43:18;10.10;99.90
30308;DHT22;17114;52.314;8.910;2024-03-22T04:45:45;10.00;99.90
30308;DHT22;17114;52.314;8.910;2024-03-22T04:48:17;10.10;99.90
30308;DHT22;17114;52.314;8.910;2024-03-22T04:50:44;10.10;99.90
30308;DHT22;17114;52.314;8.910;2024-03-22T04:53:10;10.10;99.90
30308;DHT22;17114;52.314;8.910;2024-03-22T04:55:36;10.10;99.90
30308;DHT22;17114;52.314;8.910;2024-03-22T04:58:03;10.10;99.90
30308;DHT22;17114;52.314;8.910;2024-03-22T05:00:29;10.10;99.90
30308;DHT22;17114;52.314;8.910;2024-03-22T05:02:55;10.10;99.90
30308;DHT22;17114;52.314;8.910;2024-03-22T05:05:21;10.10;99.90
30308;DHT22;17114;52.314;8.910;2024-03-22T05:07:48;10.20;99.90
30308;DHT22;17114;52.314;8.910;2024-03-22T05:10:14;10.20;99.90
30308;DHT22;17114;52.314;8.910;2024-03-22T05:12:42;10.20;99.90
30308;DHT22;17114;52.314;8.910;2024-03-22T05:15:08;10.20;99.90
30308;DHT22;17114;52.314;8.910;2024-03-22T05:17:34;10.20;99.90
30308;DHT22;17114;52.314;8.910;2024-03-22T05:20:00;10.40;99.90
30308;DHT22;17114;52.314;8.910;2024-03-22T05:22:27;10.20;99.90
30308;DHT22;17114;52.314;8.910;2024-03-22T05:24:53;10.30;99.90
30308;DHT22;17114;52.314;8.910;2024-03-22T05:27:19;10.20;99.90
30308;DHT22;17114;52.314;8.910;2024-03-22T05:29:45;10.30;99.90
30308;DHT22;17114;52.314;8.910;2024-03-22T05:32:12;10.30;99.90
30308;DHT22;17114;52.314;8.910;2024-03-22T05:34:38;10.40;99.90
30308;DHT22;17114;52.314;8.910;2024-03-22T05:37:04;10.40;99.90
30308;DHT22;17114;52.314;8.910;2024-03-22T05:39:30;10.40;99.90
30308;DHT22;17114;52.314;8.910;2024-03-22T05:41:55;10.40;99.90
30308;DHT22;17114;52.314;8.910;2024-03-22T05:44:22;10.40;99.90
30308;DHT22;17114;52.314;8.910;2024-03-22T05:46:48;10.40;99.90
30308;DHT22;17114;52.314;8.910;2024-03-22T05:49:14;10.40;99.90
30308;DHT22;17114;52.314;8.910;2024-03-22T05:51:40;10.40;99.90
30308;DHT22;17114;52.314;8.910;2024-03-22T05:54:06;10.40;99.90
30308;DHT22;17114;52.314;8.910;2024-03-22T05:56:32;10.40;99.90
30308;DHT22;17114;52.314;8.910;2024-03-22T05:58:58;10.40;99.90
30308;DHT22;17114;52.314;8.910;2024-03-22T06:01:24;10.40;99.90
30308;DHT22;17114;52.314;8.910;2024-03-22T06:03:50;10.50;99.90
30308;DHT22;17114;52.314;8.910;2024-03-22T06:06:15;10.50;99.90
30308;DHT22;17114;52.314;8.910;2024-03-22T06:08:42;10.50;99.90
30308;DHT22;17114;52.314;8.910;2024-03-22T06:11:10;10.60;99.90
30308;DHT22;17114;52.314;8.910;2024-03-22T06:13:37;10.60;99.90
30308;DHT22;17114;52.314;8.910;2024-03-22T06:16:03;10.60;99.90
30308;DHT22;17114;52.314;8.910;2024-03-22T06:18:29;10.60;99.90
30308;DHT22;17114;52.314;8.910;2024-03-22T06:20:56;10.60;99.90
30308;DHT22;17114;52.314;8.910;2024-03-22T06:23:22;10.60;99.90
30308;DHT22;17114;52.314;8.910;2024-03-22T06:25:52;10.70;99.90
30308;DHT22;17114;52.314;8.910;2024-03-22T06:28:18;10.70;99.90
30308;DHT22;17114;52.314;8.910;2024-03-22T06:30:44;10.80;99.90
30308;DHT22;17114;52.314;8.910;2024-03-22T06:33:11;10.80;99.90
30308;DHT22;17114;52.314;8.910;2024-03-22T06:35:37;10.80;99.90
30308;DHT22;17114;52.314;8.910;2024-03-22T06:38:03;10.80;99.90
30308;DHT22;17114;52.314;8.910;2024-03-22T06:40:30;10.80;99.90
30308;DHT22;17114;52.314;8.910;2024-03-22T06:42:56;10.80;99.90
30308;DHT22;17114;52.314;8.910;2024-03-22T06:45:22;10.90;99.90
30308;DHT22;17114;52.314;8.910;2024-03-22T06:47:48;10.80;99.90
30308;DHT22;17114;52.314;8.910;2024-03-22T06:50:15;10.90;99.90
30308;DHT22;17114;52.314;8.910;2024-03-22T06:52:43;11.00;99.90
30308;DHT22;17114;52.314;8.910;2024-03-22T06:55:09;11.00;99.90
30308;DHT22;17114;52.314;8.910;2024-03-22T07:00:15;11.00;99.90
30308;DHT22;17114;52.314;8.910;2024-03-22T07:02:42;11.10;99.90
30308;DHT22;17114;52.314;8.910;2024-03-22T07:05:08;11.10;99.90
30308;DHT22;17114;52.314;8.910;2024-03-22T07:07:35;11.10;99.90
30308;DHT22;17114;52.314;8.910;2024-03-22T07:10:02;11.10;99.90
30308;DHT22;17114;52.314;8.910;2024-03-22T07:12:28;11.20;99.90
30308;DHT22;17114;52.314;8.910;2024-03-22T07:14:55;11.20;99.90
30308;DHT22;17114;52.314;8.910;2024-03-22T07:17:22;11.20;99.90
30308;DHT22;17114;52.314;8.910;2024-03-22T07:19:53;11.20;99.90
30308;DHT22;17114;52.314;8.910;2024-03-22T07:22:20;11.20;99.90
30308;DHT22;17114;52.314;8.910;2024-03-22T07:24:46;11.30;99.90
30308;DHT22;17114;52.314;8.910;2024-03-22T07:27:13;11.30;99.90
30308;DHT22;17114;52.314;8.910;2024-03-22T07:29:41;11.30;99.90
30308;DHT22;17114;52.314;8.910;2024-03-22T07:32:07;11.40;99.90
30308;DHT22;17114;52.314;8.910;2024-03-22T07:34:33;11.40;99.90
30308;DHT22;17114;52.314;8.910;2024-03-22T07:36:59;11.40;99.90
30308;DHT22;17114;52.314;8.910;2024-03-22T07:39:25;11.40;99.90
30308;DHT22;17114;52.314;8.910;2024-03-22T07:41:51;11.50;99.90
30308;DHT22;17114;52.314;8.910;2024-03-22T07:44:17;11.50;99.90
30308;DHT22;17114;52.314;8.910;2024-03-22T07:46:46;11.60;99.90
30308;DHT22;17114;52.314;8.910;2024-03-22T07:49:12;11.60;99.90
30308;DHT22;17114;52.314;8.910;2024-03-22T07:51:38;11.60;99.90
30308;DHT22;17114;52.314;8.910;2024-03-22T07:54:04;11.60;99.90
30308;DHT22;17114;52.314;8.910;2024-03-22T07:56:30;11.70;99.90
30308;DHT22;17114;52.314;8.910;2024-03-22T07:58:56;11.70;99.90
30308;DHT22;17114;52.314;8.910;2024-03-22T08:01:23;11.70;99.90
30308;DHT22;17114;52.314;8.910;2024-03-22T08:03:50;11.80;99.90
30308;DHT22;17114;52.314;8.910;2024-03-22T08:06:16;11.90;99.90
30308;DHT22;17114;52.314;8.910;2024-03-22T08:08:42;11.90;99.90
30308;DHT22;17114;52.314;8.910;2024-03-22T08:11:08;11.90;99.90
30308;DHT22;17114;52.314;8.910;2024-03-22T08:13:35;11.90;99.90
30308;DHT22;17114;52.314;8.910;2024-03-22T08:16:01;11.90;99.90
30308;DHT22;17114;52.314;8.910;2024-03-22T08:18:26;12.00;99.90
30308;DHT22;17114;52.314;8.910;2024-03-22T08:20:52;12.00;99.90
30308;DHT22;17114;52.314;8.910;2024-03-22T08:23:18;12.10;99.90
30308;DHT22;17114;52.314;8.910;2024-03-22T08:25:46;12.20;99.90
30308;DHT22;17114;52.314;8.910;2024-03-22T08:28:12;12.20;99.90
30308;DHT22;17114;52.314;8.910;2024-03-22T08:30:42;12.20;99.90
30308;DHT22;17114;52.314;8.910;2024-03-22T08:33:11;12.10;99.90
30308;DHT22;17114;52.314;8.910;2024-03-22T08:35:37;12.20;99.90
30308;DHT22;17114;52.314;8.910;2024-03-22T08:38:05;12.10;99.90
30308;DHT22;17114;52.314;8.910;2024-03-22T08:40:39;12.20;99.90
30308;DHT22;17114;52.314;8.910;2024-03-22T08:43:06;12.30;99.90
30308;DHT22;17114;52.314;8.910;2024-03-22T08:45:35;12.40;99.90
30308;DHT22;17114;52.314;8.910;2024-03-22T08:48:01;12.50;99.90
30308;DHT22;17114;52.314;8.910;2024-03-22T08:50:27;12.50;99.90
30308;DHT22;17114;52.314;8.910;2024-03-22T08:52:54;12.50;99.90
30308;DHT22;17114;52.314;8.910;2024-03-22T08:55:20;12.40;99.90
30308;DHT22;17114;52.314;8.910;2024-03-22T08:57:46;12.50;99.90
30308;DHT22;17114;52.314;8.910;2024-03-22T09:00:13;12.40;99.90
30308;DHT22;17114;52.314;8.910;2024-03-22T09:02:39;12.40;99.90
30308;DHT22;17114;52.314;8.910;2024-03-22T09:05:05;12.40;99.90
30308;DHT22;17114;52.314;8.910;2024-03-22T09:07:31;12.40;99.90
30308;DHT22;17114;52.314;8.910;2024-03-22T09:09:57;12.40;99.90
30308;DHT22;17114;52.314;8.910;2024-03-22T09:12:23;12.40;99.90
30308;DHT22;17114;52.314;8.910;2024-03-22T09:14:50;12.40;99.90
30308;DHT22;17114;52.314;8.910;2024-03-22T09:17:16;12.40;99.90
30308;DHT22;17114;52.314;8.910;2024-03-22T09:19:42;12.30;99.90
30308;DHT22;17114;52.314;8.910;2024-03-22T09:22:08;12.40;99.90
30308;DHT22;17114;52.314;8.910;2024-03-22T09:24:34;12.40;99.90
30308;DHT22;17114;52.314;8.910;2024-03-22T09:27:00;12.40;99.90
30308;DHT22;17114;52.314;8.910;2024-03-22T09:29:26;12.50;99.90
30308;DHT22;17114;52.314;8.910;2024-03-22T09:31:52;12.40;99.90
30308;DHT22;17114;52.314;8.910;2024-03-22T09:34:18;12.50;99.90
30308;DHT22;17114;52.314;8.910;2024-03-22T09:36:43;12.60;99.90
30308;DHT22;17114;52.314;8.910;2024-03-22T09:39:09;12.60;99.90
30308;DHT22;17114;52.314;8.910;2024-03-22T09:41:42;12.70;99.90
30308;DHT22;17114;52.314;8.910;2024-03-22T09:44:12;12.80;99.90
30308;DHT22;17114;52.314;8.910;2024-03-22T09:46:40;12.80;99.90
30308;DHT22;17114;52.314;8.910;2024-03-22T09:49:09;12.90;99.90
30308;DHT22;17114;52.314;8.910;2024-03-22T09:51:37;12.90;99.90
30308;DHT22;17114;52.314;8.910;2024-03-22T09:54:03;12.80;99.90
30308;DHT22;17114;52.314;8.910;2024-03-22T09:56:31;12.80;99.90
30308;DHT22;17114;52.314;8.910;2024-03-22T09:58:58;12.70;99.90
30308;DHT22;17114;52.314;8.910;2024-03-22T10:01:25;12.70;99.90
30308;DHT22;17114;52.314;8.910;2024-03-22T10:03:52;12.80;99.90
30308;DHT22;17114;52.314;8.910;2024-03-22T10:06:18;12.70;99.90
30308;DHT22;17114;52.314;8.910;2024-03-22T10:08:46;12.70;99.90
30308;DHT22;17114;52.314;8.910;2024-03-22T10:11:12;12.80;99.90
30308;DHT22;17114;52.314;8.910;2024-03-22T10:13:38;12.80;99.90
30308;DHT22;17114;52.314;8.910;2024-03-22T10:16:05;12.80;99.90
30308;DHT22;17114;52.314;8.910;2024-03-22T10:18:32;12.80;99.90
30308;DHT22;17114;52.314;8.910;2024-03-22T10:21:05;12.90;99.90
30308;DHT22;17114;52.314;8.910;2024-03-22T10:23:31;13.00;99.90
30308;DHT22;17114;52.314;8.910;2024-03-22T10:25:59;13.10;99.90
30308;DHT22;17114;52.314;8.910;2024-03-22T10:28:28;13.20;99.90
30308;DHT22;17114;52.314;8.910;2024-03-22T10:30:54;13.20;99.90
30308;DHT22;17114;52.314;8.910;2024-03-22T10:33:21;13.30;99.90
30308;DHT22;17114;52.314;8.910;2024-03-22T10:35:54;13.30;99.90
30308;DHT22;17114;52.314;8.910;2024-03-22T10:38:21;13.30;99.90
30308;DHT22;17114;52.314;8.910;2024-03-22T10:40:47;13.50;99.90
30308;DHT22;17114;52.314;8.910;2024-03-22T10:43:17;13.50;99.90
30308;DHT22;17114;52.314;8.910;2024-03-22T10:45:48;13.40;99.90
30308;DHT22;17114;52.314;8.910;2024-03-22T10:48:17;13.40;99.90
30308;DHT22;17114;52.314;8.910;2024-03-22T10:50:44;13.40;99.90
30308;DHT22;17114;52.314;8.910;2024-03-22T10:53:17;13.40;99.90
30308;DHT22;17114;52.314;8.910;2024-03-22T10:55:47;13.40;99.90
30308;DHT22;17114;52.314;8.910;2024-03-22T10:58:24;13.40;99.90
30308;DHT22;17114;52.314;8.910;2024-03-22T11:00:54;13.30;99.90
30308;DHT22;17114;52.314;8.910;2024-03-22T11:03:25;13.30;99.90
30308;DHT22;17114;52.314;8.910;2024-03-22T11:05:56;13.30;99.90
30308;DHT22;17114;52.314;8.910;2024-03-22T11:08:27;13.20;99.90
30308;DHT22;17114;52.314;8.910;2024-03-22T11:10:54;13.10;99.90
30308;DHT22;17114;52.314;8.910;2024-03-22T11:13:20;13.10;99.90
30308;DHT22;17114;52.314;8.910;2024-03-22T11:15:50;13.00;99.90
30308;DHT22;17114;52.314;8.910;2024-03-22T11:18:17;13.00;99.90
30308;DHT22;17114;52.314;8.910;2024-03-22T11:20:44;12.90;99.90
30308;DHT22;17114;52.314;8.910;2024-03-22T11:23:13;12.90;99.90
30308;DHT22;17114;52.314;8.910;2024-03-22T11:25:39;12.90;99.90
30308;DHT22;17114;52.314;8.910;2024-03-22T11:28:05;12.90;99.90
30308;DHT22;17114;52.314;8.910;2024-03-22T11:30:33;12.90;99.90
30308;DHT22;17114;52.314;8.910;2024-03-22T11:33:03;12.90;99.90
30308;DHT22;17114;52.314;8.910;2024-03-22T11:35:29;12.90;99.90
30308;DHT22;17114;52.314;8.910;2024-03-22T11:37:55;12.80;99.90
30308;DHT22;17114;52.314;8.910;2024-03-22T11:40:22;12.80;99.90
30308;DHT22;17114;52.314;8.910;2024-03-22T11:42:51;12.80;99.90
30308;DHT22;17114;52.314;8.910;2024-03-22T11:45:18;12.70;99.90
30308;DHT22;17114;52.314;8.910;2024-03-22T11:47:45;12.70;99.90
30308;DHT22;17114;52.314;8.910;2024-03-22T11:50:15;12.60;99.90
30308;DHT22;17114;52.314;8.910;2024-03-22T11:52:42;12.60;99.90
30308;DHT22;17114;52.314;8.910;2024-03-22T11:55:10;12.60;99.90
30308;DHT22;17114;52.314;8.910;2024-03-22T11:57:36;12.50;99.90
30308;DHT22;17114;52.314;8.910;2024-03-22T12:00:04;12.50;99.90
30308;DHT22;17114;52.314;8.910;2024-03-22T12:02:40;12.40;99.90
30308;DHT22;17114;52.314;8.910;2024-03-22T12:05:07;12.40;99.90
30308;DHT22;17114;52.314;8.910;2024-03-22T12:07:35;12.40;99.90
30308;DHT22;17114;52.314;8.910;2024-03-22T12:10:01;12.40;99.90
30308;DHT22;17114;52.314;8.910;2024-03-22T12:12:27;12.30;99.90
30308;DHT22;17114;52.314;8.910;2024-03-22T12:14:53;12.30;99.90
30308;DHT22;17114;52.314;8.910;2024-03-22T12:17:20;12.20;99.90
30308;DHT22;17114;52.314;8.910;2024-03-22T12:19:46;12.20;99.90
30308;DHT22;17114;52.314;8.910;2024-03-22T12:22:13;12.20;99.90
30308;DHT22;17114;52.314;8.910;2024-03-22T12:24:39;12.10;99.90
30308;DHT22;17114;52.314;8.910;2024-03-22T12:27:05;12.10;99.90
30308;DHT22;17114;52.314;8.910;2024-03-22T12:29:35;12.10;99.90
30308;DHT22;17114;52.314;8.910;2024-03-22T12:32:02;12.00;99.90
30308;DHT22;17114;52.314;8.910;2024-03-22T12:34:30;11.90;99.90
30308;DHT22;17114;52.314;8.910;2024-03-22T12:36:56;11.90;99.90
30308;DHT22;17114;52.314;8.910;2024-03-22T12:39:22;11.90;99.90
30308;DHT22;17114;52.314;8.910;2024-03-22T12:41:48;11.90;99.90
30308;DHT22;17114;52.314;8.910;2024-03-22T12:44:14;11.90;99.90
30308;DHT22;17114;52.314;8.910;2024-03-22T12:46:41;11.90;99.90
30308;DHT22;17114;52.314;8.910;2024-03-22T12:49:11;11.80;99.90
30308;DHT22;17114;52.314;8.910;2024-03-22T12:51:37;11.80;99.90
30308;DHT22;17114;52.314;8.910;2024-03-22T12:54:03;11.80;99.90
30308;DHT22;17114;52.314;8.910;2024-03-22T12:56:33;11.80;99.90
30308;DHT22;17114;52.314;8.910;2024-03-22T12:58:59;11.80;99.90
30308;DHT22;17114;52.314;8.910;2024-03-22T13:01:26;11.80;99.90
30308;DHT22;17114;52.314;8.910;2024-03-22T13:03:52;11.70;99.90
30308;DHT22;17114;52.314;8.910;2024-03-22T13:06:18;11.70;99.90
30308;DHT22;17114;52.314;8.910;2024-03-22T13:08:44;11.70;99.90
30308;DHT22;17114;52.314;8.910;2024-03-22T13:11:10;11.70;99.90
30308;DHT22;17114;52.314;8.910;2024-03-22T13:13:37;11.60;99.90
30308;DHT22;17114;52.314;8.910;2024-03-22T13:16:04;11.60;99.90
30308;DHT22;17114;52.314;8.910;2024-03-22T13:18:30;11.60;99.90
30308;DHT22;17114;52.314;8.910;2024-03-22T13:20:56;11.60;99.90
30308;DHT22;17114;52.314;8.910;2024-03-22T13:23:22;11.60;99.90
30308;DHT22;17114;52.314;8.910;2024-03-22T13:25:48;11.70;99.90
30308;DHT22;17114;52.314;8.910;2024-03-22T13:28:15;11.60;99.90
30308;DHT22;17114;52.314;8.910;2024-03-22T13:30:46;11.50;99.90
30308;DHT22;17114;52.314;8.910;2024-03-22T13:33:13;11.50;99.90
30308;DHT22;17114;52.314;8.910;2024-03-22T13:35:39;11.40;99.90
30308;DHT22;17114;52.314;8.910;2024-03-22T13:38:07;11.40;99.90
30308;DHT22;17114;52.314;8.910;2024-03-22T13:40:39;11.40;99.90
30308;DHT22;17114;52.314;8.910;2024-03-22T13:43:10;11.40;99.90
30308;DHT22;17114;52.314;8.910;2024-03-22T13:45:41;11.40;99.90
30308;DHT22;17114;52.314;8.910;2024-03-22T13:48:11;11.30;99.90
30308;DHT22;17114;52.314;8.910;2024-03-22T13:50:38;11.20;99.90
30308;DHT22;17114;52.314;8.910;2024-03-22T13:53:04;11.20;99.90
30308;DHT22;17114;52.314;8.910;2024-03-22T13:55:30;11.10;99.90
30308;DHT22;17114;52.314;8.910;2024-03-22T13:57:58;11.10;99.90
30308;DHT22;17114;52.314;8.910;2024-03-22T14:00:24;11.00;99.90
30308;DHT22;17114;52.314;8.910;2024-03-22T14:02:51;11.10;99.90
30308;DHT22;17114;52.314;8.910;2024-03-22T14:05:22;11.00;99.90
30308;DHT22;17114;52.314;8.910;2024-03-22T14:07:50;11.00;99.90
30308;DHT22;17114;52.314;8.910;2024-03-22T14:10:17;11.00;99.90
30308;DHT22;17114;52.314;8.910;2024-03-22T14:12:45;11.00;99.90
30308;DHT22;17114;52.314;8.910;2024-03-22T14:15:13;11.00;99.90
30308;DHT22;17114;52.314;8.910;2024-03-22T14:17:39;10.90;99.90
30308;DHT22;17114;52.314;8.910;2024-03-22T14:20:05;10.90;99.90
30308;DHT22;17114;52.314;8.910;2024-03-22T14:22:39;11.00;99.90
30308;DHT22;17114;52.314;8.910;2024-03-22T14:25:09;11.00;99.90
30308;DHT22;17114;52.314;8.910;2024-03-22T14:27:36;11.00;99.90
30308;DHT22;17114;52.314;8.910;2024-03-22T14:30:04;11.00;99.90
30308;DHT22;17114;52.314;8.910;2024-03-22T14:32:36;10.90;99.90
30308;DHT22;17114;52.314;8.910;2024-03-22T14:35:02;10.80;99.90
30308;DHT22;17114;52.314;8.910;2024-03-22T14:37:28;10.80;99.90
30308;DHT22;17114;52.314;8.910;2024-03-22T14:39:54;10.70;99.90
30308;DHT22;17114;52.314;8.910;2024-03-22T14:42:20;10.70;99.90
30308;DHT22;17114;52.314;8.910;2024-03-22T14:44:46;10.70;99.90
30308;DHT22;17114;52.314;8.910;2024-03-22T14:47:13;10.70;99.90
30308;DHT22;17114;52.314;8.910;2024-03-22T14:49:39;10.60;99.90
30308;DHT22;17114;52.314;8.910;2024-03-22T14:52:06;10.60;99.90
30308;DHT22;17114;52.314;8.910;2024-03-22T14:54:33;10.60;99.90
30308;DHT22;17114;52.314;8.910;2024-03-22T14:56:59;10.50;99.90
30308;DHT22;17114;52.314;8.910;2024-03-22T14:59:29;10.50;99.90
30308;DHT22;17114;52.314;8.910;2024-03-22T15:01:56;10.50;99.90
30308;DHT22;17114;52.314;8.910;2024-03-22T15:04:22;10.50;99.90
30308;DHT22;17114;52.314;8.910;2024-03-22T15:06:48;10.50;99.90
30308;DHT22;17114;52.314;8.910;2024-03-22T15:09:20;10.50;99.90
30308;DHT22;17114;52.314;8.910;2024-03-22T15:11:46;10.50;99.90
30308;DHT22;17114;52.314;8.910;2024-03-22T15:14:13;10.50;99.90
30308;DHT22;17114;52.314;8.910;2024-03-22T15:16:42;10.50;99.90
30308;DHT22;17114;52.314;8.910;2024-03-22T15:19:09;10.40;99.90
30308;DHT22;17114;52.314;8.910;2024-03-22T15:21:38;10.40;99.90
30308;DHT22;17114;52.314;8.910;2024-03-22T15:24:05;10.40;99.90
30308;DHT22;17114;52.314;8.910;2024-03-22T15:26:32;10.50;99.90
30308;DHT22;17114;52.314;8.910;2024-03-22T15:28:58;10.50;99.90
30308;DHT22;17114;52.314;8.910;2024-03-22T15:31:24;10.50;99.90
30308;DHT22;17114;52.314;8.910;2024-03-22T15:33:51;10.50;99.90
30308;DHT22;17114;52.314;8.910;2024-03-22T15:36:17;10.50;99.90